createdAt,value
2018-08-09T00:01:41.445Z,8.78
2018-08-09T00:04:10.445Z,6.40
2018-08-09T00:06:39.277Z,10.20
2018-08-09T00:09:12.432Z,10.00
2018-08-09T00:11:41.638Z,7.78
2018-08-09T00:14:11.757Z,9.30
2018-08-09T00:16:41.005Z,10.28
2018-08-09T00:19:09.855Z,13.22
2018-08-09T00:21:38.718Z,8.30
2018-08-09T00:24:07.707Z,9.10
2018-08-09T00:26:36.503Z,9.18
2018-08-09T00:29:05.550Z,9.58
2018-08-09T00:43:07.668Z,9.13
2018-08-09T00:45:36.515Z,6.87
2018-08-09T00:48:05.399Z,11.25
2018-08-09T00:50:34.231Z,9.13
2018-08-09T00:53:03.053Z,7.62
2018-08-09T00:55:31.917Z,9.83
2018-08-09T00:58:00.805Z,8.83
2018-08-09T01:00:29.606Z,8.95
2018-08-09T01:02:58.448Z,11.38
2018-08-09T01:05:27.278Z,9.28
2018-08-09T01:07:56.083Z,7.40
2018-08-09T01:10:24.932Z,8.43
2018-08-09T01:12:53.833Z,11.97
2018-08-09T01:15:22.989Z,9.30
2018-08-09T01:17:51.795Z,8.75
2018-08-09T01:20:20.638Z,9.38
2018-08-09T01:22:49.467Z,10.90
2018-08-09T01:25:18.336Z,11.30
2018-08-09T01:27:47.519Z,10.23
2018-08-09T01:30:16.330Z,11.20
2018-08-09T01:32:45.579Z,9.60
2018-08-09T01:35:14.569Z,9.45
2018-08-09T01:37:43.424Z,10.30
2018-08-09T01:40:12.316Z,10.95
2018-08-09T01:42:52.539Z,11.05
2018-08-09T01:59:49.001Z,17.10
2018-08-09T02:02:18.200Z,13.03
2018-08-09T02:04:47.097Z,12.00
2018-08-09T02:07:16.106Z,13.18
2018-08-09T02:09:45.144Z,14.68
2018-08-09T02:12:14.177Z,12.20
2018-08-09T02:14:43.007Z,10.72
2018-08-09T02:17:11.836Z,13.05
2018-08-09T02:19:40.123Z,10.77
2018-08-09T02:25:03.703Z,12.07
2018-08-09T02:27:32.860Z,12.25
2018-08-09T02:30:01.684Z,11.38
2018-08-09T02:32:30.561Z,11.33
2018-08-09T02:34:59.022Z,9.68
2018-08-09T02:37:27.306Z,14.30
2018-08-09T02:39:56.111Z,13.48
2018-08-09T02:42:25.100Z,14.90
2018-08-09T02:44:53.404Z,11.83
2018-08-09T02:50:19.007Z,10.23
2018-08-09T02:52:47.284Z,12.37
2018-08-09T02:55:15.775Z,11.25
2018-08-09T02:57:44.067Z,10.67
2018-08-09T03:00:12.347Z,10.60
2018-08-09T03:02:40.618Z,11.20
2018-08-09T03:05:09.202Z,10.67
2018-08-09T03:07:38.049Z,11.65
2018-08-09T03:10:06.675Z,13.50
2018-08-09T03:15:33.774Z,15.07
2018-08-09T03:18:02.395Z,12.47
2018-08-09T03:20:30.651Z,12.10
2018-08-09T03:22:58.920Z,12.07
2018-08-09T03:25:27.224Z,13.27
2018-08-09T03:27:55.497Z,10.70
2018-08-09T03:30:23.759Z,14.07
2018-08-09T03:32:52.239Z,12.37
2018-08-09T03:35:20.533Z,15.83
2018-08-09T03:37:54.809Z,13.20
2018-08-09T03:40:23.063Z,12.33
2018-08-09T03:42:51.339Z,14.87
2018-08-09T03:45:19.601Z,13.03
2018-08-09T03:47:47.870Z,15.97
2018-08-09T03:50:16.162Z,11.40
2018-08-09T03:52:44.568Z,14.97
2018-08-09T03:55:12.872Z,13.70
2018-08-09T03:57:41.739Z,12.00
2018-08-09T04:03:05.342Z,16.77
2018-08-09T04:05:33.586Z,13.33
2018-08-09T04:08:01.882Z,12.97
2018-08-09T04:10:30.122Z,14.27
2018-08-09T04:12:58.396Z,12.63
2018-08-09T04:15:26.669Z,15.70
2018-08-09T04:17:55.322Z,13.03
2018-08-09T04:20:23.789Z,13.10
2018-08-09T04:22:52.252Z,16.63
2018-08-09T04:25:26.214Z,13.97
2018-08-09T04:27:54.524Z,13.50
2018-08-09T04:30:22.790Z,14.10
2018-08-09T04:32:51.067Z,14.07
2018-08-09T04:35:19.346Z,12.03
2018-08-09T04:37:47.629Z,13.13
2018-08-09T04:40:16.135Z,16.07
2018-08-09T04:42:44.719Z,12.80
2018-08-09T04:45:13.561Z,15.38
2018-08-09T04:50:35.329Z,14.17
2018-08-09T04:53:04.192Z,16.52
2018-08-09T04:55:32.803Z,14.00
2018-08-09T04:58:01.669Z,13.30
2018-08-09T05:00:30.100Z,14.20
2018-08-09T05:02:58.708Z,13.57
2018-08-09T05:05:27.040Z,12.35
2018-08-09T05:07:55.914Z,12.88
2018-08-09T05:10:24.832Z,13.85
2018-08-09T05:12:53.922Z,12.90
2018-08-09T05:15:22.741Z,13.40
2018-08-09T05:17:51.633Z,12.40
2018-08-09T05:20:20.477Z,13.30
2018-08-09T05:22:49.350Z,12.23
2018-08-09T05:25:18.156Z,10.60
2018-08-09T05:27:47.009Z,10.78
2018-08-09T05:30:15.852Z,10.68
2018-08-09T05:32:44.657Z,11.20
2018-08-09T05:35:13.436Z,9.00
2018-08-09T05:37:42.373Z,10.80
2018-08-09T05:40:11.353Z,11.25
2018-08-09T05:42:40.530Z,9.68
2018-08-09T05:45:09.384Z,9.58
2018-08-09T05:47:38.400Z,10.85
2018-08-09T05:50:07.678Z,10.68
2018-08-09T05:52:37.135Z,10.72
2018-08-09T05:55:06.387Z,9.53
2018-08-09T05:57:35.209Z,10.08
2018-08-09T06:00:05.031Z,10.75
2018-08-09T06:02:33.554Z,8.43
2018-08-09T06:05:02.386Z,13.50
2018-08-09T06:07:31.210Z,9.68
2018-08-09T06:10:00.101Z,9.48
2018-08-09T06:12:29.184Z,10.72
2018-08-09T06:14:58.038Z,10.78
2018-08-09T06:17:26.872Z,10.18
2018-08-09T06:19:55.720Z,9.48
2018-08-09T06:22:24.656Z,10.05
2018-08-09T06:24:53.823Z,10.50
2018-08-09T06:27:22.665Z,9.88
2018-08-09T06:29:51.887Z,10.72
2018-08-09T06:32:21.061Z,10.15
2018-08-09T06:34:50.264Z,10.68
2018-08-09T06:37:19.098Z,11.45
2018-08-09T06:39:47.894Z,9.95
2018-08-09T06:42:17.103Z,9.88
2018-08-09T06:44:45.979Z,11.05
2018-08-09T06:47:14.833Z,12.00
2018-08-09T06:49:43.703Z,12.58
2018-08-09T06:52:12.531Z,12.43
2018-08-09T06:54:41.392Z,11.88
2018-08-09T06:57:10.238Z,12.03
2018-08-09T06:59:39.056Z,12.53
2018-08-09T07:02:07.758Z,11.77
2018-08-09T07:04:36.656Z,12.73
2018-08-09T07:07:05.966Z,14.05
2018-08-09T07:09:34.947Z,13.20
2018-08-09T07:12:03.804Z,12.30
2018-08-09T07:14:32.617Z,11.48
2018-08-09T07:17:02.187Z,14.68
2018-08-09T07:19:31.047Z,13.40
2018-08-09T07:22:00.232Z,12.10
2018-08-09T07:24:29.098Z,14.70
2018-08-09T07:26:57.945Z,11.50
2018-08-09T07:29:26.810Z,12.07
2018-08-09T07:31:55.676Z,11.85
2018-08-09T07:34:24.500Z,14.23
2018-08-09T07:36:53.371Z,12.05
2018-08-09T07:39:22.227Z,13.80
2018-08-09T07:41:51.605Z,11.63
2018-08-09T07:44:20.492Z,12.43
2018-08-09T07:46:49.370Z,11.15
2018-08-09T07:49:18.221Z,11.05
2018-08-09T07:51:47.072Z,11.93
2018-08-09T07:54:16.284Z,11.28
2018-08-09T07:56:45.275Z,15.72
2018-08-09T07:59:14.149Z,12.93
2018-08-09T08:01:42.964Z,10.43
2018-08-09T08:04:11.983Z,12.10
2018-08-09T08:06:42.876Z,10.93
2018-08-09T08:09:12.660Z,10.63
2018-08-09T08:11:41.896Z,10.75
2018-08-09T08:14:11.328Z,11.95
2018-08-09T08:16:40.199Z,9.43
2018-08-09T08:19:09.465Z,11.40
2018-08-09T08:21:38.633Z,9.30
2018-08-09T08:24:07.539Z,11.10
2018-08-09T08:26:36.569Z,10.78
2018-08-09T08:29:05.631Z,7.53
2018-08-09T08:31:34.523Z,8.95
2018-08-09T08:34:03.375Z,8.15
2018-08-09T08:36:32.223Z,7.83
2018-08-09T08:39:01.130Z,6.87
2018-08-09T08:41:30.506Z,6.50
2018-08-09T08:43:59.552Z,7.78
2018-08-09T08:46:28.394Z,5.65
2018-08-09T08:48:57.236Z,7.37
2018-08-09T08:51:26.103Z,5.20
2018-08-09T08:53:54.946Z,5.62
2018-08-09T08:56:24.133Z,5.70
2018-08-09T08:58:53.143Z,5.30
2018-08-09T09:01:22.012Z,4.70
2018-08-09T09:03:50.973Z,4.85
2018-08-09T09:06:19.800Z,6.62
2018-08-09T09:08:48.676Z,5.90
2018-08-09T09:11:17.523Z,5.12
2018-08-09T09:13:46.362Z,5.55
2018-08-09T09:16:15.433Z,8.08
2018-08-09T09:18:44.264Z,5.58
2018-08-09T09:21:13.674Z,6.53
2018-08-09T09:23:42.503Z,6.50
2018-08-09T09:26:11.347Z,5.30
2018-08-09T09:28:40.191Z,6.03
2018-08-09T09:31:09.075Z,4.50
2018-08-09T09:33:37.920Z,3.77
2018-08-09T09:36:07.247Z,5.87
2018-08-09T09:38:36.076Z,5.97
2018-08-09T09:41:05.270Z,4.10
2018-08-09T09:43:34.596Z,4.70
2018-08-09T09:46:03.422Z,5.42
2018-08-09T09:48:31.941Z,5.13
2018-08-09T09:51:00.768Z,7.35
2018-08-09T09:53:29.678Z,6.00
2018-08-09T09:55:58.533Z,4.35
2018-08-09T09:58:27.524Z,4.92
2018-08-09T10:01:01.099Z,5.30
2018-08-09T10:03:30.083Z,4.87
2018-08-09T10:05:58.934Z,3.70
2018-08-09T10:08:27.804Z,4.83
2018-08-09T10:10:56.666Z,6.35
2018-08-09T10:13:25.484Z,4.67
2018-08-09T10:15:54.314Z,4.78
2018-08-09T10:18:23.176Z,3.75
2018-08-09T10:20:52.024Z,5.28
2018-08-09T10:23:20.915Z,4.15
2018-08-09T10:25:49.748Z,4.78
2018-08-09T10:28:18.632Z,5.80
2018-08-09T10:30:47.505Z,6.37
2018-08-09T10:33:16.398Z,6.33
2018-08-09T10:35:45.238Z,5.95
2018-08-09T10:38:14.084Z,4.42
2018-08-09T10:40:42.908Z,4.78
2018-08-09T10:43:11.962Z,3.10
2018-08-09T10:45:50.250Z,5.67
2018-08-09T10:48:19.423Z,5.70
2018-08-09T10:50:48.279Z,5.15
2018-08-09T10:53:17.088Z,6.15
2018-08-09T10:55:45.991Z,5.87
2018-08-09T10:58:15.360Z,6.28
2018-08-09T11:00:43.654Z,3.70
2018-08-09T11:03:12.493Z,4.85
2018-08-09T11:05:41.329Z,2.85
2018-08-09T11:08:10.210Z,3.85
2018-08-09T11:10:39.044Z,4.53
2018-08-09T11:13:07.879Z,5.55
2018-08-09T11:15:36.711Z,3.58
2018-08-09T11:18:05.583Z,4.78
2018-08-09T11:20:34.490Z,5.67
2018-08-09T11:23:03.915Z,5.47
2018-08-09T11:25:32.778Z,5.05
2018-08-09T11:28:01.611Z,4.35
2018-08-09T11:30:30.464Z,4.25
2018-08-09T11:32:59.289Z,4.00
2018-08-09T11:35:28.171Z,4.60
2018-08-09T11:37:57.017Z,5.03
2018-08-09T11:40:25.851Z,4.97
2018-08-09T11:42:54.702Z,5.08
2018-08-09T11:45:23.689Z,6.35
2018-08-09T11:47:52.562Z,5.20
2018-08-09T11:50:21.436Z,4.90
2018-08-09T11:52:50.466Z,5.03
2018-08-09T11:55:19.301Z,4.50
2018-08-09T11:57:48.177Z,8.88
2018-08-09T12:00:17.143Z,5.47
2018-08-09T12:02:45.680Z,6.57
2018-08-09T12:05:14.535Z,4.80
2018-08-09T12:07:43.382Z,5.05
2018-08-09T12:10:12.240Z,5.53
2018-08-09T12:12:41.119Z,5.53
2018-08-09T12:15:10.008Z,6.50
2018-08-09T12:17:38.838Z,5.78
2018-08-09T12:20:07.990Z,6.65
2018-08-09T12:22:37.060Z,8.13
2018-08-09T12:25:06.014Z,9.45
2018-08-09T12:27:35.443Z,8.23
2018-08-09T12:30:06.347Z,9.70
2018-08-09T12:32:35.190Z,11.80
2018-08-09T12:35:04.504Z,8.28
2018-08-09T12:37:33.773Z,8.45
2018-08-09T12:40:02.711Z,10.32
2018-08-09T12:42:31.658Z,8.93
2018-08-09T12:45:00.772Z,11.43
2018-08-09T12:47:29.938Z,10.55
2018-08-09T12:49:59.020Z,11.38
2018-08-09T12:52:27.920Z,9.90
2018-08-09T12:54:56.857Z,10.68
2018-08-09T12:57:26.038Z,11.63
2018-08-09T12:59:54.863Z,9.85
2018-08-09T13:02:23.667Z,10.17
2018-08-09T13:04:52.488Z,10.43
2018-08-09T13:07:21.456Z,10.28
2018-08-09T13:09:50.754Z,12.75
2018-08-09T13:12:19.594Z,11.20
2018-08-09T13:14:48.778Z,12.13
2018-08-09T13:17:17.624Z,15.50
2018-08-09T13:19:46.520Z,11.95
2018-08-09T13:22:15.455Z,13.18
2018-08-09T13:24:44.663Z,13.70
2018-08-09T13:27:14.126Z,12.65
2018-08-09T13:29:43.022Z,15.93
2018-08-09T13:32:11.913Z,19.60
2018-08-09T13:34:41.115Z,20.52
2018-08-09T13:37:10.028Z,19.05
2018-08-09T13:39:39.221Z,16.05
2018-08-09T13:42:08.046Z,17.57
2018-08-09T13:44:36.982Z,17.65
2018-08-09T13:47:06.248Z,21.20
2018-08-09T13:49:35.379Z,18.30
2018-08-09T13:52:04.268Z,16.80
2018-08-09T13:54:33.419Z,18.20
2018-08-09T13:57:02.307Z,16.57
2018-08-09T13:59:31.241Z,16.97
2018-08-09T14:01:59.816Z,16.00
2018-08-09T14:04:28.667Z,15.93
2018-08-09T14:06:57.583Z,16.70
2018-08-09T14:09:26.689Z,16.10
2018-08-09T14:11:55.519Z,13.78
2018-08-09T14:14:24.442Z,14.98
2018-08-09T14:16:53.283Z,15.78
2018-08-09T14:19:22.249Z,14.03
2018-08-09T14:21:51.124Z,15.18
2018-08-09T14:24:19.998Z,14.03
2018-08-09T14:26:48.862Z,13.35
2018-08-09T14:29:17.733Z,12.85
2018-08-09T14:31:46.961Z,15.13
2018-08-09T14:34:15.854Z,15.65
2018-08-09T14:36:44.723Z,14.43
2018-08-09T14:39:13.556Z,13.35
2018-08-09T14:41:42.671Z,13.15
2018-08-09T14:44:11.866Z,13.03
2018-08-09T14:46:41.086Z,13.78
2018-08-09T14:49:10.255Z,14.38
2018-08-09T14:51:39.477Z,13.58
2018-08-09T14:54:08.332Z,15.10
2018-08-09T14:56:37.231Z,17.10
2018-08-09T14:59:06.158Z,13.13
2018-08-09T15:01:34.743Z,13.20
2018-08-09T15:04:03.661Z,13.68
2018-08-09T15:06:32.829Z,12.10
2018-08-09T15:09:01.732Z,12.63
2018-08-09T15:11:30.881Z,13.05
2018-08-09T15:13:59.978Z,12.63
2018-08-09T15:16:29.625Z,13.85
2018-08-09T15:18:58.535Z,15.55
2018-08-09T15:21:27.364Z,13.98
2018-08-09T15:23:56.605Z,14.03
2018-08-09T15:26:25.730Z,15.53
2018-08-09T15:28:54.779Z,13.18
2018-08-09T15:31:23.968Z,14.68
2018-08-09T15:33:52.927Z,14.75
2018-08-09T15:36:21.796Z,15.15
2018-08-09T15:38:50.671Z,16.57
2018-08-09T15:41:19.599Z,14.45
2018-08-09T15:43:48.995Z,14.47
2018-08-09T15:46:18.216Z,15.03
2018-08-09T15:48:47.438Z,14.73
2018-08-09T15:51:16.339Z,13.30
2018-08-09T15:53:45.252Z,13.43
2018-08-09T15:56:14.673Z,13.43
2018-08-09T15:58:43.858Z,13.75
2018-08-09T16:01:12.795Z,13.68
2018-08-09T16:03:42.241Z,14.65
2018-08-09T16:06:11.494Z,14.68
2018-08-09T16:08:40.341Z,14.38
2018-08-09T16:11:09.257Z,13.53
2018-08-09T16:13:38.121Z,15.45
2018-08-09T16:16:07.062Z,14.10
2018-08-09T16:18:35.946Z,13.88
2018-08-09T16:21:04.784Z,14.45
2018-08-09T16:23:33.658Z,14.65
2018-08-09T16:26:02.766Z,15.45
2018-08-09T16:28:31.869Z,14.78
2018-08-09T16:31:01.015Z,15.90
2018-08-09T16:33:29.913Z,16.10
2018-08-09T16:35:58.809Z,16.17
2018-08-09T16:38:27.697Z,15.32
2018-08-09T16:40:56.589Z,16.15
2018-08-09T16:43:25.700Z,16.50
2018-08-09T16:45:55.940Z,17.60
2018-08-09T16:48:24.824Z,16.37
2018-08-09T16:50:53.727Z,17.57
2018-08-09T16:53:22.614Z,18.65
2018-08-09T16:55:51.691Z,18.02
2018-08-09T16:58:21.270Z,18.67
2018-08-09T17:00:49.551Z,20.17
2018-08-09T17:03:18.492Z,19.90
2018-08-09T17:05:47.486Z,20.02
2018-08-09T17:08:16.356Z,20.50
2018-08-09T17:10:45.266Z,20.92
2018-08-09T17:13:14.127Z,21.40
2018-08-09T17:15:43.344Z,23.47
2018-08-09T17:18:12.441Z,24.77
2018-08-09T17:20:41.320Z,24.72
2018-08-09T17:23:10.587Z,25.37
2018-08-09T17:25:39.506Z,25.48
2018-08-09T17:28:08.508Z,28.47
2018-08-09T17:30:37.389Z,38.92
2018-08-09T17:33:08.164Z,31.48
2018-08-09T17:35:37.065Z,34.27
2018-08-09T17:38:06.221Z,33.42
2018-08-09T17:40:35.249Z,34.15
2018-08-09T17:43:05.035Z,32.48
2018-08-09T17:45:35.224Z,32.38
2018-08-09T17:48:04.921Z,33.35
2018-08-09T17:50:33.824Z,32.48
2018-08-09T17:53:03.657Z,33.00
2018-08-09T17:55:32.913Z,35.40
2018-08-09T17:58:01.831Z,33.38
2018-08-09T18:00:32.477Z,35.43
2018-08-09T18:03:01.773Z,36.33
2018-08-09T18:05:30.898Z,37.25
2018-08-09T18:07:59.984Z,37.42
2018-08-09T18:10:32.020Z,35.13
2018-08-09T18:13:01.023Z,36.05
2018-08-09T18:15:31.090Z,36.63
2018-08-09T18:18:01.159Z,38.28
2018-08-09T18:20:33.264Z,38.85
2018-08-09T18:23:02.898Z,41.45
2018-08-09T18:25:31.837Z,40.45
2018-08-09T18:28:00.728Z,39.60
2018-08-09T18:30:30.729Z,19.07
2018-08-09T18:32:59.628Z,11.12
2018-08-09T18:35:28.669Z,7.42
2018-08-09T18:37:57.695Z,7.33
2018-08-09T18:40:27.767Z,7.60
2018-08-09T18:42:57.351Z,3.95
2018-08-09T18:45:27.043Z,6.12
2018-08-09T18:47:57.119Z,7.92
2018-08-09T18:50:27.726Z,6.03
2018-08-09T18:52:56.838Z,4.47
2018-08-09T18:55:25.759Z,5.45
2018-08-09T18:57:54.873Z,7.67
2018-08-09T19:00:25.354Z,4.77
2018-08-09T19:02:54.889Z,5.37
2018-08-09T19:05:24.402Z,11.87
2018-08-09T19:07:52.935Z,5.27
2018-08-09T19:10:25.339Z,6.17
2018-08-09T19:12:54.130Z,5.28
2018-08-09T19:22:08.119Z,8.90
2018-08-09T19:24:36.818Z,11.30
2018-08-09T19:27:06.590Z,10.93
2018-08-09T19:29:35.840Z,11.17
2018-08-09T19:32:07.301Z,14.05
2018-08-09T19:34:35.704Z,9.13
2018-08-09T19:37:04.848Z,9.23
2018-08-09T19:39:34.781Z,9.50
2018-08-09T19:42:04.676Z,10.20
2018-08-09T19:44:33.606Z,9.10
2018-08-09T19:47:02.545Z,11.30
2018-08-09T19:49:32.588Z,8.05
2018-08-09T19:52:01.779Z,9.85
2018-08-09T19:54:30.920Z,7.97
2018-08-09T19:57:00.565Z,13.83
2018-08-09T19:59:29.765Z,11.95
2018-08-09T20:01:58.737Z,9.27
2018-08-09T20:04:27.627Z,10.32
2018-08-09T20:06:56.813Z,10.95
2018-08-09T20:09:25.984Z,10.20
2018-08-09T20:11:54.551Z,9.57
2018-08-09T20:14:22.800Z,10.75
2018-08-09T20:16:51.733Z,9.68
2018-08-09T20:19:20.046Z,12.82
2018-08-09T20:21:48.350Z,9.63
2018-08-09T20:24:16.864Z,13.63
2018-08-09T20:26:45.418Z,12.27
2018-08-09T20:29:14.314Z,11.10
2018-08-09T20:31:42.609Z,7.93
2018-08-09T20:34:11.504Z,12.58
2018-08-09T20:36:40.792Z,8.95
2018-08-09T20:39:12.526Z,6.83
2018-08-09T20:41:40.843Z,7.87
2018-08-09T20:44:09.575Z,10.37
2018-08-09T20:46:38.992Z,12.07
2018-08-09T20:49:08.258Z,7.53
2018-08-09T20:51:37.159Z,9.25
2018-08-09T20:54:06.435Z,11.10
2018-08-09T20:56:34.790Z,12.50
2018-08-09T20:59:03.188Z,10.00
2018-08-09T21:01:31.490Z,9.90
2018-08-09T21:04:00.054Z,13.17
2018-08-09T21:06:28.957Z,9.00
2018-08-09T21:08:57.545Z,6.27
2018-08-09T21:11:25.875Z,6.87
2018-08-09T21:13:54.153Z,12.60
2018-08-09T21:16:22.526Z,10.20
2018-08-09T21:18:50.838Z,6.90
2018-08-09T21:21:19.414Z,12.47
2018-08-09T21:23:48.072Z,10.77
2018-08-09T21:26:16.438Z,9.17
2018-08-09T21:28:45.060Z,6.70
2018-08-09T21:31:13.437Z,11.63
2018-08-09T21:33:42.162Z,10.20
2018-08-09T21:36:10.742Z,12.23
2018-08-09T21:38:39.075Z,13.73
2018-08-09T21:41:07.692Z,8.00
2018-08-09T21:43:36.021Z,9.73
2018-08-09T21:46:04.329Z,8.77
2018-08-09T21:48:32.836Z,9.10
2018-08-09T21:51:01.502Z,16.80
2018-08-09T21:53:30.552Z,9.17
2018-08-09T21:55:59.819Z,11.40
2018-08-09T21:58:28.168Z,12.23
2018-08-09T22:01:01.371Z,10.47
2018-08-09T22:03:32.804Z,6.60
2018-08-09T22:06:06.472Z,7.93
2018-08-09T22:08:40.044Z,7.37
2018-08-09T22:11:15.259Z,8.33
2018-08-09T22:13:49.001Z,6.63
2018-08-09T22:16:22.678Z,7.17
2018-08-09T22:18:56.400Z,8.57
2018-08-09T22:21:30.213Z,8.93
2018-08-09T22:23:58.784Z,16.27
2018-08-09T22:26:27.097Z,10.33
2018-08-09T22:28:55.818Z,11.07
2018-08-09T22:31:24.100Z,9.63
2018-08-09T22:33:52.740Z,9.10
2018-08-09T22:36:21.061Z,9.90
2018-08-09T22:38:50.405Z,9.10
2018-08-09T22:41:18.697Z,8.87
2018-08-09T22:43:47.356Z,7.17
2018-08-09T22:46:16.070Z,8.17
2018-08-09T22:48:44.404Z,8.60
2018-08-09T22:51:13.077Z,5.60
2018-08-09T22:53:41.363Z,9.00
2018-08-09T22:56:10.099Z,8.60
2018-08-09T22:58:38.683Z,8.23
2018-08-09T23:01:06.952Z,8.63
2018-08-09T23:03:35.267Z,10.30
2018-08-09T23:06:03.766Z,7.33
2018-08-09T23:08:32.040Z,8.23
2018-08-09T23:11:00.316Z,6.10
2018-08-09T23:13:28.853Z,8.60
2018-08-09T23:15:58.127Z,8.88
2018-08-09T23:18:26.981Z,10.20
2018-08-09T23:20:58.542Z,7.33
2018-08-09T23:23:27.758Z,8.08
2018-08-09T23:25:56.424Z,6.50
2018-08-09T23:28:24.855Z,6.10
2018-08-09T23:30:53.438Z,8.10
2018-08-09T23:33:22.265Z,4.83
2018-08-09T23:35:50.536Z,7.80
2018-08-09T23:38:18.806Z,5.07
2018-08-09T23:40:47.120Z,5.67
2018-08-09T23:43:15.451Z,8.20
2018-08-09T23:45:44.067Z,7.70
2018-08-09T23:48:12.603Z,10.17
2018-08-09T23:50:40.895Z,9.07
2018-08-09T23:53:09.154Z,14.53
2018-08-09T23:55:37.425Z,8.37
2018-08-09T23:58:06.069Z,9.03
